sensor_id;sensor_type;location;lat;lon;timestamp;pressure;altitude;pressure_sealevel;temperature;humidity
52319;BME280;38258;51.148;14.068;2023-04-01T00:02:23;96522.31;;;7.39;100.00
52319;BME280;38258;51.148;14.068;2023-04-01T00:04:49;96524.91;;;7.39;100.00
52319;BME280;38258;51.148;14.068;2023-04-01T00:07:16;96527.56;;;7.38;100.00
52319;BME280;38258;51.148;14.068;2023-04-01T00:09:44;96531.53;;;7.46;100.00
52319;BME280;38258;51.148;14.068;2023-04-01T00:12:10;96524.19;;;7.35;100.00
52319;BME280;38258;51.148;14.068;2023-04-01T00:14:37;96520.91;;;7.32;100.00
52319;BME280;38258;51.148;14.068;2023-04-01T00:17:05;96530.25;;;7.36;100.00
52319;BME280;38258;51.148;14.068;2023-04-01T00:19:31;96530.81;;;7.43;100.00
52319;BME280;38258;51.148;14.068;2023-04-01T00:21:58;96529.19;;;7.40;100.00
52319;BME280;38258;51.148;14.068;2023-04-01T00:24:25;96523.16;;;7.40;100.00
52319;BME280;38258;51.148;14.068;2023-04-01T00:26:53;96539.34;;;7.46;100.00
52319;BME280;38258;51.148;14.068;2023-04-01T00:29:20;96539.75;;;7.37;100.00
52319;BME280;38258;51.148;14.068;2023-04-01T00:31:46;96529.75;;;7.28;100.00
52319;BME280;38258;51.148;14.068;2023-04-01T00:34:14;96529.19;;;7.21;100.00
52319;BME280;38258;51.148;14.068;2023-04-01T00:36:41;96535.81;;;7.28;100.00
52319;BME280;38258;51.148;14.068;2023-04-01T00:39:07;96526.78;;;7.16;100.00
52319;BME280;38258;51.148;14.068;2023-04-01T00:41:34;96527.84;;;7.12;100.00
52319;BME280;38258;51.148;14.068;2023-04-01T00:44:20;96530.28;;;7.15;100.00
52319;BME280;38258;51.148;14.068;2023-04-01T00:46:48;96527.63;;;7.17;100.00
52319;BME280;38258;51.148;14.068;2023-04-01T00:49:17;96536.34;;;7.16;100.00
52319;BME280;38258;51.148;14.068;2023-04-01T00:51:46;96536.91;;;7.22;100.00
52319;BME280;38258;51.148;14.068;2023-04-01T00:54:15;96535.50;;;7.15;100.00
52319;BME280;38258;51.148;14.068;2023-04-01T00:56:46;96524.41;;;7.12;100.00
52319;BME280;38258;51.148;14.068;2023-04-01T00:59:21;96532.84;;;7.17;100.00
52319;BME280;38258;51.148;14.068;2023-04-01T01:01:49;96534.72;;;7.13;100.00
52319;BME280;38258;51.148;14.068;2023-04-01T01:04:24;96534.38;;;7.21;100.00
52319;BME280;38258;51.148;14.068;2023-04-01T01:06:57;96535.09;;;7.25;100.00
52319;BME280;38258;51.148;14.068;2023-04-01T01:09:37;96531.63;;;7.24;100.00
52319;BME280;38258;51.148;14.068;2023-04-01T01:12:11;96532.56;;;7.23;100.00
52319;BME280;38258;51.148;14.068;2023-04-01T01:14:52;96527.00;;;7.12;100.00
52319;BME280;38258;51.148;14.068;2023-04-01T01:17:29;96534.22;;;7.24;100.00
52319;BME280;38258;51.148;14.068;2023-04-01T01:26:09;96515.59;;;7.14;100.00
52319;BME280;38258;51.148;14.068;2023-04-01T01:28:48;96524.75;;;7.23;100.00
52319;BME280;38258;51.148;14.068;2023-04-01T01:31:33;96525.81;;;7.19;100.00
52319;BME280;38258;51.148;14.068;2023-04-01T01:34:11;96523.84;;;7.24;100.00
52319;BME280;38258;51.148;14.068;2023-04-01T01:36:44;96526.56;;;7.21;100.00
52319;BME280;38258;51.148;14.068;2023-04-01T01:39:12;96526.56;;;7.21;100.00
52319;BME280;38258;51.148;14.068;2023-04-01T01:41:41;96492.69;;;7.03;100.00
52319;BME280;38258;51.148;14.068;2023-04-01T01:44:12;96525.81;;;7.19;100.00
52319;BME280;38258;51.148;14.068;2023-04-01T01:46:41;96521.38;;;7.21;100.00
52319;BME280;38258;51.148;14.068;2023-04-01T01:49:10;96525.59;;;7.24;100.00
52319;BME280;38258;51.148;14.068;2023-04-01T01:51:37;96536.97;;;7.21;100.00
52319;BME280;38258;51.148;14.068;2023-04-01T01:54:11;96528.91;;;7.27;100.00
52319;BME280;38258;51.148;14.068;2023-04-01T01:56:39;96526.44;;;7.24;100.00
52319;BME280;38258;51.148;14.068;2023-04-01T01:59:09;96527.34;;;7.23;100.00
52319;BME280;38258;51.148;14.068;2023-04-01T02:01:39;96523.72;;;7.27;100.00
52319;BME280;38258;51.148;14.068;2023-04-01T02:04:13;96523.78;;;7.26;100.00
52319;BME280;38258;51.148;14.068;2023-04-01T02:06:45;96522.88;;;7.27;100.00
52319;BME280;38258;51.148;14.068;2023-04-01T02:09:15;96525.25;;;7.31;100.00
52319;BME280;38258;51.148;14.068;2023-04-01T02:11:47;96530.47;;;7.31;100.00
52319;BME280;38258;51.148;14.068;2023-04-01T02:14:16;96522.81;;;7.28;100.00
52319;BME280;38258;51.148;14.068;2023-04-01T02:16:47;96525.25;;;7.31;100.00
52319;BME280;38258;51.148;14.068;2023-04-01T02:19:16;96537.41;;;7.31;100.00
52319;BME280;38258;51.148;14.068;2023-04-01T02:21:49;96525.97;;;7.35;100.00
52319;BME280;38258;51.148;14.068;2023-04-01T02:24:19;96532.00;;;7.35;100.00
52319;BME280;38258;51.148;14.068;2023-04-01T02:26:49;96529.59;;;7.31;100.00
52319;BME280;38258;51.148;14.068;2023-04-01T02:29:18;96528.84;;;7.29;100.00
52319;BME280;38258;51.148;14.068;2023-04-01T02:31:47;96527.16;;;7.28;100.00
52319;BME280;38258;51.148;14.068;2023-04-01T02:34:15;96535.16;;;7.23;100.00
52319;BME280;38258;51.148;14.068;2023-04-01T02:36:42;96528.41;;;7.19;100.00
52319;BME280;38258;51.148;14.068;2023-04-01T02:39:09;96540.34;;;7.23;100.00
52319;BME280;38258;51.148;14.068;2023-04-01T02:41:40;96535.50;;;7.15;100.00
52319;BME280;38258;51.148;14.068;2023-04-01T02:44:07;96537.97;;;7.18;100.00
52319;BME280;38258;51.148;14.068;2023-04-01T02:46:33;96539.00;;;7.14;100.00
52319;BME280;38258;51.148;14.068;2023-04-01T02:49:00;96534.91;;;7.08;100.00
52319;BME280;38258;51.148;14.068;2023-04-01T02:51:27;96540.78;;;7.14;100.00
52319;BME280;38258;51.148;14.068;2023-04-01T02:53:54;96515.78;;;6.90;100.00
52319;BME280;38258;51.148;14.068;2023-04-01T02:56:20;96549.34;;;7.16;100.00
52319;BME280;38258;51.148;14.068;2023-04-01T02:58:49;96548.72;;;7.11;100.00
52319;BME280;38258;51.148;14.068;2023-04-01T03:01:16;96538.44;;;7.07;100.00
52319;BME280;38258;51.148;14.068;2023-04-01T03:03:43;96551.44;;;7.07;100.00
52319;BME280;38258;51.148;14.068;2023-04-01T03:06:12;96549.59;;;7.10;100.00
52319;BME280;38258;51.148;14.068;2023-04-01T03:08:39;96553.00;;;7.12;100.00
52319;BME280;38258;51.148;14.068;2023-04-01T03:11:06;96552.09;;;7.13;100.00
52319;BME280;38258;51.148;14.068;2023-04-01T03:13:35;96555.84;;;7.05;100.00
52319;BME280;38258;51.148;14.068;2023-04-01T03:16:04;96553.13;;;7.08;100.00
52319;BME280;38258;51.148;14.068;2023-04-01T03:18:31;96559.94;;;7.11;100.00
52319;BME280;38258;51.148;14.068;2023-04-01T03:21:12;96553.06;;;7.10;100.00
52319;BME280;38258;51.148;14.068;2023-04-01T03:23:39;96555.53;;;7.13;100.00
52319;BME280;38258;51.148;14.068;2023-04-01T03:26:06;96554.50;;;7.17;100.00
52319;BME280;38258;51.148;14.068;2023-04-01T03:28:33;96530.19;;;6.98;100.00
52319;BME280;38258;51.148;14.068;2023-04-01T03:31:00;96552.91;;;7.13;100.00
52319;BME280;38258;51.148;14.068;2023-04-01T03:33:30;96563.25;;;7.15;100.00
52319;BME280;38258;51.148;14.068;2023-04-01T03:35:56;96565.66;;;7.19;100.00
52319;BME280;38258;51.148;14.068;2023-04-01T03:38:23;96564.03;;;7.17;100.00
52319;BME280;38258;51.148;14.068;2023-04-01T03:40:50;96527.16;;;6.88;100.00
52319;BME280;38258;51.148;14.068;2023-04-01T03:43:17;96566.00;;;7.12;100.00
52319;BME280;38258;51.148;14.068;2023-04-01T03:45:44;96561.06;;;7.05;100.00
52319;BME280;38258;51.148;14.068;2023-04-01T03:48:12;96542.38;;;6.97;100.00
52319;BME280;38258;51.148;14.068;2023-04-01T03:50:40;96570.91;;;7.18;100.00
52319;BME280;38258;51.148;14.068;2023-04-01T03:53:07;96576.69;;;7.25;100.00
52319;BME280;38258;51.148;14.068;2023-04-01T03:55:35;96577.56;;;7.25;100.00
52319;BME280;38258;51.148;14.068;2023-04-01T03:58:02;96580.34;;;7.20;100.00
52319;BME280;38258;51.148;14.068;2023-04-01T04:00:29;96578.19;;;7.30;100.00
52319;BME280;38258;51.148;14.068;2023-04-01T04:02:56;96587.81;;;7.28;100.00
52319;BME280;38258;51.148;14.068;2023-04-01T04:05:29;96589.91;;;7.20;100.00
52319;BME280;38258;51.148;14.068;2023-04-01T04:07:57;96572.75;;;7.16;100.00
52319;BME280;38258;51.148;14.068;2023-04-01T04:10:24;96593.06;;;7.27;100.00
52319;BME280;38258;51.148;14.068;2023-04-01T04:12:51;96589.91;;;7.20;100.00
52319;BME280;38258;51.148;14.068;2023-04-01T04:15:19;96568.66;;;7.10;100.00
52319;BME280;38258;51.148;14.068;2023-04-01T04:17:46;96587.25;;;7.21;100.00
52319;BME280;38258;51.148;14.068;2023-04-01T04:20:14;96592.00;;;7.31;100.00
52319;BME280;38258;51.148;14.068;2023-04-01T04:22:41;96595.25;;;7.17;100.00
52319;BME280;38258;51.148;14.068;2023-04-01T04:25:09;96583.97;;;7.16;100.00
52319;BME280;38258;51.148;14.068;2023-04-01T04:27:36;96585.03;;;7.12;100.00
52319;BME280;38258;51.148;14.068;2023-04-01T04:30:08;96592.63;;;7.17;100.00
52319;BME280;38258;51.148;14.068;2023-04-01T04:32:35;96583.97;;;7.16;100.00
52319;BME280;38258;51.148;14.068;2023-04-01T04:35:03;96609.72;;;7.22;100.00
52319;BME280;38258;51.148;14.068;2023-04-01T04:37:32;96609.44;;;7.29;100.00
52319;BME280;38258;51.148;14.068;2023-04-01T04:39:59;96620.13;;;7.22;100.00
52319;BME280;38258;51.148;14.068;2023-04-01T04:42:28;96620.28;;;7.19;100.00
52319;BME280;38258;51.148;14.068;2023-04-01T04:44:59;96606.59;;;7.14;100.00
52319;BME280;38258;51.148;14.068;2023-04-01T04:47:26;96607.91;;;7.25;100.00
52319;BME280;38258;51.148;14.068;2023-04-01T04:49:53;96604.00;;;7.14;100.00
52319;BME280;38258;51.148;14.068;2023-04-01T04:52:20;96603.19;;;7.14;100.00
52319;BME280;38258;51.148;14.068;2023-04-01T04:54:46;96620.19;;;7.21;100.00
52319;BME280;38258;51.148;14.068;2023-04-01T04:57:13;96622.72;;;7.22;100.00
52319;BME280;38258;51.148;14.068;2023-04-01T04:59:47;96628.72;;;7.25;100.00
52319;BME280;38258;51.148;14.068;2023-04-01T05:02:26;96600.19;;;7.02;100.00
52319;BME280;38258;51.148;14.068;2023-04-01T05:04:52;96628.56;;;7.28;100.00
52319;BME280;38258;51.148;14.068;2023-04-01T05:07:19;96631.44;;;7.21;100.00
52319;BME280;38258;51.148;14.068;2023-04-01T05:09:45;96630.44;;;7.24;100.00
52319;BME280;38258;51.148;14.068;2023-04-01T05:12:12;96629.16;;;7.34;100.00
52319;BME280;38258;51.148;14.068;2023-04-01T05:14:58;96639.88;;;7.27;100.00
52319;BME280;38258;51.148;14.068;2023-04-01T05:17:24;96634.53;;;7.30;100.00
52319;BME280;38258;51.148;14.068;2023-04-01T05:19:51;96639.84;;;7.28;100.00
52319;BME280;38258;51.148;14.068;2023-04-01T05:22:17;96646.59;;;7.32;100.00
52319;BME280;38258;51.148;14.068;2023-04-01T05:24:44;96640.56;;;7.32;100.00
52319;BME280;38258;51.148;14.068;2023-04-01T05:27:11;96643.97;;;7.32;100.00
52319;BME280;38258;51.148;14.068;2023-04-01T05:29:39;96645.38;;;7.20;100.00
52319;BME280;38258;51.148;14.068;2023-04-01T05:32:17;96639.84;;;7.28;100.00
52319;BME280;38258;51.148;14.068;2023-04-01T05:34:44;96636.56;;;7.23;100.00
52319;BME280;38258;51.148;14.068;2023-04-01T05:37:10;96640.78;;;7.26;100.00
52319;BME280;38258;51.148;14.068;2023-04-01T05:39:37;96637.88;;;7.33;100.00
52319;BME280;38258;51.148;14.068;2023-04-01T05:42:05;96649.56;;;7.44;100.00
52319;BME280;38258;51.148;14.068;2023-04-01T05:44:32;96635.06;;;7.38;100.00
52319;BME280;38258;51.148;14.068;2023-04-01T05:47:20;96663.53;;;7.41;100.00
52319;BME280;38258;51.148;14.068;2023-04-01T05:49:47;96661.78;;;7.42;100.00
52319;BME280;38258;51.148;14.068;2023-04-01T05:52:14;96657.38;;;7.44;100.00
52319;BME280;38258;51.148;14.068;2023-04-01T05:54:42;96660.78;;;7.44;100.00
52319;BME280;38258;51.148;14.068;2023-04-01T05:57:08;96655.50;;;7.47;100.00
52319;BME280;38258;51.148;14.068;2023-04-01T05:59:35;96656.00;;;7.35;100.00
52319;BME280;38258;51.148;14.068;2023-04-01T06:02:02;96665.16;;;7.44;100.00
52319;BME280;38258;51.148;14.068;2023-04-01T06:04:33;96667.91;;;7.41;100.00
52319;BME280;38258;51.148;14.068;2023-04-01T06:07:01;96663.41;;;7.44;100.00
52319;BME280;38258;51.148;14.068;2023-04-01T06:09:29;96636.13;;;7.34;100.00
52319;BME280;38258;51.148;14.068;2023-04-01T06:12:12;96657.25;;;7.66;100.00
52319;BME280;38258;51.148;14.068;2023-04-01T06:15:03;96657.41;;;7.63;100.00
52319;BME280;38258;51.148;14.068;2023-04-01T06:17:43;96659.16;;;7.62;100.00
52319;BME280;38258;51.148;14.068;2023-04-01T06:20:21;96651.19;;;7.66;100.00
52319;BME280;38258;51.148;14.068;2023-04-01T06:23:05;96667.47;;;8.09;100.00
52319;BME280;38258;51.148;14.068;2023-04-01T06:25:50;96665.72;;;7.90;100.00
52319;BME280;38258;51.148;14.068;2023-04-01T06:28:31;96675.06;;;7.95;100.00
52319;BME280;38258;51.148;14.068;2023-04-01T06:31:05;96661.06;;;7.78;100.00
52319;BME280;38258;51.148;14.068;2023-04-01T06:33:50;96672.72;;;7.90;100.00
52319;BME280;38258;51.148;14.068;2023-04-01T06:36:33;96670.94;;;7.90;100.00
52319;BME280;38258;51.148;14.068;2023-04-01T06:39:15;96669.03;;;7.75;100.00
52319;BME280;38258;51.148;14.068;2023-04-01T06:42:02;96679.84;;;7.85;100.00
52319;BME280;38258;51.148;14.068;2023-04-01T06:44:42;96682.31;;;7.88;100.00
52319;BME280;38258;51.148;14.068;2023-04-01T06:47:42;96682.81;;;7.77;100.00
52319;BME280;38258;51.148;14.068;2023-04-01T06:50:37;96683.75;;;7.95;100.00
52319;BME280;38258;51.148;14.068;2023-04-01T06:53:33;96684.88;;;7.89;100.00
52319;BME280;38258;51.148;14.068;2023-04-01T06:56:32;96689.44;;;7.84;100.00
52319;BME280;38258;51.148;14.068;2023-04-01T06:59:12;96690.44;;;8.01;100.00
52319;BME280;38258;51.148;14.068;2023-04-01T07:01:45;96649.63;;;7.82;100.00
52319;BME280;38258;51.148;14.068;2023-04-01T07:04:14;96693.66;;;8.06;100.00
52319;BME280;38258;51.148;14.068;2023-04-01T07:06:46;96681.84;;;7.99;100.00
52319;BME280;38258;51.148;14.068;2023-04-01T07:09:19;96687.84;;;8.01;100.00
52319;BME280;38258;51.148;14.068;2023-04-01T07:12:19;96689.22;;;8.08;100.00
52319;BME280;38258;51.148;14.068;2023-04-01T07:15:26;96695.84;;;8.15;100.00
52319;BME280;38258;51.148;14.068;2023-04-01T07:17:57;96670.31;;;8.04;100.00
52319;BME280;38258;51.148;14.068;2023-04-01T07:20:28;96697.34;;;8.21;100.00
52319;BME280;38258;51.148;14.068;2023-04-01T07:22:58;96694.03;;;8.17;100.00
52319;BME280;38258;51.148;14.068;2023-04-01T07:25:37;96684.16;;;8.05;100.00
52319;BME280;38258;51.148;14.068;2023-04-01T07:28:21;96701.84;;;8.37;100.00
52319;BME280;38258;51.148;14.068;2023-04-01T07:31:05;96685.50;;;8.33;100.00
52319;BME280;38258;51.148;14.068;2023-04-01T07:33:39;96700.28;;;8.52;100.00
52319;BME280;38258;51.148;14.068;2023-04-01T07:36:14;96708.75;;;8.57;100.00
52319;BME280;38258;51.148;14.068;2023-04-01T07:38:51;96680.78;;;8.41;100.00
52319;BME280;38258;51.148;14.068;2023-04-01T07:41:47;96687.91;;;8.57;100.00
52319;BME280;38258;51.148;14.068;2023-04-01T07:44:24;96702.88;;;8.71;100.00
52319;BME280;38258;51.148;14.068;2023-04-01T07:47:03;96710.78;;;8.69;100.00
52319;BME280;38258;51.148;14.068;2023-04-01T07:49:42;96664.88;;;8.28;100.00
52319;BME280;38258;51.148;14.068;2023-04-01T07:52:15;96712.03;;;8.60;100.00
52319;BME280;38258;51.148;14.068;2023-04-01T07:54:50;96706.31;;;8.54;100.00
52319;BME280;38258;51.148;14.068;2023-04-01T07:57:23;96692.59;;;8.29;100.00
52319;BME280;38258;51.148;14.068;2023-04-01T07:59:59;96715.56;;;8.59;100.00
52319;BME280;38258;51.148;14.068;2023-04-01T08:03:10;96706.31;;;8.54;100.00
52319;BME280;38258;51.148;14.068;2023-04-01T08:05:51;96713.81;;;8.60;100.00
52319;BME280;38258;51.148;14.068;2023-04-01T08:08:27;96726.78;;;8.61;100.00
52319;BME280;38258;51.148;14.068;2023-04-01T08:11:24;96732.53;;;8.49;100.00
52319;BME280;38258;51.148;14.068;2023-04-01T08:14:20;96729.50;;;8.58;100.00
52319;BME280;38258;51.148;14.068;2023-04-01T08:17:11;96735.66;;;8.57;100.00
52319;BME280;38258;51.148;14.068;2023-04-01T08:19:56;96740.84;;;8.57;100.00
52319;BME280;38258;51.148;14.068;2023-04-01T08:22:30;96723.53;;;8.56;100.00
52319;BME280;38258;51.148;14.068;2023-04-01T08:25:03;96695.41;;;8.25;100.00
52319;BME280;38258;51.148;14.068;2023-04-01T08:27:37;96726.78;;;8.61;100.00
52319;BME280;38258;51.148;14.068;2023-04-01T08:30:17;96732.03;;;8.79;100.00
52319;BME280;38258;51.148;14.068;2023-04-01T08:32:47;96723.09;;;8.66;100.00
52319;BME280;38258;51.148;14.068;2023-04-01T08:35:21;96733.06;;;8.75;100.00
52319;BME280;38258;51.148;14.068;2023-04-01T08:37:52;96733.97;;;8.93;100.00
52319;BME280;38258;51.148;14.068;2023-04-01T08:40:52;96731.53;;;9.25;100.00
52319;BME280;38258;51.148;14.068;2023-04-01T08:43:32;96733.47;;;9.39;100.00
52319;BME280;38258;51.148;14.068;2023-04-01T08:46:22;96734.91;;;9.62;100.00
52319;BME280;38258;51.148;14.068;2023-04-01T08:49:14;96725.94;;;9.51;100.00
52319;BME280;38258;51.148;14.068;2023-04-01T08:52:12;96691.97;;;9.17;100.00
52319;BME280;38258;51.148;14.068;2023-04-01T08:55:01;96730.00;;;9.03;100.00
52319;BME280;38258;51.148;14.068;2023-04-01T08:57:57;96730.91;;;9.02;100.00
52319;BME280;38258;51.148;14.068;2023-04-01T09:00:54;96728.63;;;9.31;100.00
52319;BME280;38258;51.148;14.068;2023-04-01T09:03:58;96737.44;;;9.29;100.00
52319;BME280;38258;51.148;14.068;2023-04-01T09:06:42;96735.53;;;9.15;100.00
52319;BME280;38258;51.148;14.068;2023-04-01T09:12:59;96710.22;;;9.17;100.00
52319;BME280;38258;51.148;14.068;2023-04-01T09:15:42;96733.78;;;9.33;100.00
52319;BME280;38258;51.148;14.068;2023-04-01T09:18:24;96732.91;;;8.97;100.00
52319;BME280;38258;51.148;14.068;2023-04-01T09:21:11;96743.34;;;8.97;100.00
52319;BME280;38258;51.148;14.068;2023-04-01T09:24:12;96750.09;;;9.01;100.00
52319;BME280;38258;51.148;14.068;2023-04-01T09:26:53;96697.56;;;8.91;100.00
52319;BME280;38258;51.148;14.068;2023-04-01T09:32:53;96661.88;;;8.92;100.00
52319;BME280;38258;51.148;14.068;2023-04-01T09:35:38;96662.81;;;8.91;100.00
52319;BME280;38258;51.148;14.068;2023-04-01T09:38:21;96668.78;;;8.93;100.00
52319;BME280;38258;51.148;14.068;2023-04-01T09:40:56;96608.06;;;8.37;100.00
52319;BME280;38258;51.148;14.068;2023-04-01T09:44:12;96753.81;;;9.15;100.00
52319;BME280;38258;51.148;14.068;2023-04-01T09:47:22;96755.25;;;9.21;100.00
52319;BME280;38258;51.148;14.068;2023-04-01T09:50:30;96767.16;;;9.26;100.00
52319;BME280;38258;51.148;14.068;2023-04-01T09:54:24;96600.06;;;8.22;100.00
52319;BME280;38258;51.148;14.068;2023-04-01T09:57:39;96764.78;;;9.39;100.00
52319;BME280;38258;51.148;14.068;2023-04-01T10:07:00;96683.44;;;8.96;100.00
52319;BME280;38258;51.148;14.068;2023-04-01T10:10:15;96718.97;;;9.33;100.00
52319;BME280;38258;51.148;14.068;2023-04-01T10:13:11;96679.81;;;9.51;100.00
52319;BME280;38258;51.148;14.068;2023-04-01T10:19:30;96773.16;;;10.15;100.00
52319;BME280;38258;51.148;14.068;2023-04-01T10:22:27;96705.28;;;9.11;100.00
52319;BME280;38258;51.148;14.068;2023-04-01T10:25:27;96765.09;;;9.33;100.00
52319;BME280;38258;51.148;14.068;2023-04-01T10:31:29;96793.03;;;9.48;100.00
52319;BME280;38258;51.148;14.068;2023-04-01T10:34:29;96784.19;;;9.51;100.00
52319;BME280;38258;51.148;14.068;2023-04-01T10:37:13;96730.56;;;9.28;100.00
52319;BME280;38258;51.148;14.068;2023-04-01T10:40:19;96664.72;;;8.87;100.00
52319;BME280;38258;51.148;14.068;2023-04-01T10:43:57;96631.41;;;8.57;100.00
52319;BME280;38258;51.148;14.068;2023-04-01T10:47:01;96756.03;;;9.75;100.00
52319;BME280;38258;51.148;14.068;2023-04-01T10:49:44;96763.22;;;9.88;100.00
52319;BME280;38258;51.148;14.068;2023-04-01T10:55:58;96789.97;;;9.58;100.00
52319;BME280;38258;51.148;14.068;2023-04-01T11:05:58;96662.72;;;9.10;100.00
52319;BME280;38258;51.148;14.068;2023-04-01T11:09:09;96773.53;;;9.91;100.00
52319;BME280;38258;51.148;14.068;2023-04-01T11:12:15;96719.25;;;9.62;100.00
52319;BME280;38258;51.148;14.068;2023-04-01T11:15:03;96611.94;;;9.17;100.00
52319;BME280;38258;51.148;14.068;2023-04-01T11:17:49;96670.78;;;9.41;100.00
52319;BME280;38258;51.148;14.068;2023-04-01T11:20:49;96616.63;;;8.75;100.00
52319;BME280;38258;51.148;14.068;2023-04-01T11:23:46;96635.25;;;8.50;100.00
52319;BME280;38258;51.148;14.068;2023-04-01T11:26:29;96765.78;;;9.37;100.00
52319;BME280;38258;51.148;14.068;2023-04-01T11:32:41;96752.06;;;8.96;100.00
52319;BME280;38258;51.148;14.068;2023-04-01T11:35:31;96803.97;;;9.20;100.00
52319;BME280;38258;51.148;14.068;2023-04-01T11:38:14;96651.28;;;8.77;100.00
52319;BME280;38258;51.148;14.068;2023-04-01T11:40:47;96799.38;;;9.25;100.00
52319;BME280;38258;51.148;14.068;2023-04-01T11:43:29;96805.25;;;9.83;100.00
52319;BME280;38258;51.148;14.068;2023-04-01T11:46:27;96773.38;;;9.76;100.00
52319;BME280;38258;51.148;14.068;2023-04-01T11:49:05;96777.66;;;9.60;100.00
52319;BME280;38258;51.148;14.068;2023-04-01T11:51:53;96787.72;;;9.68;100.00
52319;BME280;38258;51.148;14.068;2023-04-01T11:54:38;96786.56;;;10.42;100.00
52319;BME280;38258;51.148;14.068;2023-04-01T11:57:28;96708.53;;;10.35;100.00
52319;BME280;38258;51.148;14.068;2023-04-01T12:03:34;96740.03;;;11.73;100.00
52319;BME280;38258;51.148;14.068;2023-04-01T12:06:11;96744.28;;;12.05;100.00
52319;BME280;38258;51.148;14.068;2023-04-01T12:08:46;96726.63;;;11.02;100.00
52319;BME280;38258;51.148;14.068;2023-04-01T12:11:26;96808.50;;;12.55;100.00
52319;BME280;38258;51.148;14.068;2023-04-01T12:14:10;96790.81;;;12.59;100.00
52319;BME280;38258;51.148;14.068;2023-04-01T12:17:03;96677.47;;;10.93;100.00
52319;BME280;38258;51.148;14.068;2023-04-01T12:20:34;96691.69;;;10.40;100.00
52319;BME280;38258;51.148;14.068;2023-04-01T12:26:44;96684.41;;;10.29;100.00
52319;BME280;38258;51.148;14.068;2023-04-01T12:29:36;96807.91;;;10.83;100.00
52319;BME280;38258;51.148;14.068;2023-04-01T12:32:17;96647.56;;;10.02;100.00
52319;BME280;38258;51.148;14.068;2023-04-01T12:38:15;96743.53;;;12.02;100.00
52319;BME280;38258;51.148;14.068;2023-04-01T12:44:05;96654.25;;;11.02;100.00
52319;BME280;38258;51.148;14.068;2023-04-01T12:46:54;96704.19;;;11.59;100.00
52319;BME280;38258;51.148;14.068;2023-04-01T12:49:45;96715.69;;;11.56;100.00
52319;BME280;38258;51.148;14.068;2023-04-01T12:52:37;96699.38;;;11.37;100.00
52319;BME280;38258;51.148;14.068;2023-04-01T12:55:19;96691.63;;;11.05;100.00
52319;BME280;38258;51.148;14.068;2023-04-01T13:01:27;96705.06;;;10.98;100.00
52319;BME280;38258;51.148;14.068;2023-04-01T13:04:41;96676.78;;;9.93;100.00
52319;BME280;38258;51.148;14.068;2023-04-01T13:07:26;96728.03;;;10.45;100.00
52319;BME280;38258;51.148;14.068;2023-04-01T13:17:11;96781.97;;;11.57;100.00
52319;BME280;38258;51.148;14.068;2023-04-01T13:19:52;96791.19;;;11.64;100.00
52319;BME280;38258;51.148;14.068;2023-04-01T13:22:45;96720.44;;;10.72;100.00
52319;BME280;38258;51.148;14.068;2023-04-01T13:29:46;96818.75;;;11.55;100.00
52319;BME280;38258;51.148;14.068;2023-04-01T13:43:31;96706.94;;;10.80;100.00
52319;BME280;38258;51.148;14.068;2023-04-01T13:46:12;96767.56;;;11.19;100.00
52319;BME280;38258;51.148;14.068;2023-04-01T13:49:41;96743.38;;;10.67;100.00
52319;BME280;38258;51.148;14.068;2023-04-01T13:52:36;96748.59;;;10.67;100.00
52319;BME280;38258;51.148;14.068;2023-04-01T13:55:28;96839.56;;;10.94;100.00
52319;BME280;38258;51.148;14.068;2023-04-01T13:58:15;96771.38;;;10.65;100.00
52319;BME280;38258;51.148;14.068;2023-04-01T14:00:54;96763.53;;;10.65;100.00
52319;BME280;38258;51.148;14.068;2023-04-01T14:03:41;96784.47;;;10.81;100.00
52319;BME280;38258;51.148;14.068;2023-04-01T14:06:30;96812.91;;;10.87;100.00
52319;BME280;38258;51.148;14.068;2023-04-01T14:09:19;96825.56;;;10.95;100.00
52319;BME280;38258;51.148;14.068;2023-04-01T14:11:56;96685.34;;;10.12;100.00
52319;BME280;38258;51.148;14.068;2023-04-01T14:14:36;96750.09;;;10.39;100.00
52319;BME280;38258;51.148;14.068;2023-04-01T14:17:35;96803.38;;;10.70;100.00
52319;BME280;38258;51.148;14.068;2023-04-01T14:20:33;96677.97;;;9.87;100.00
52319;BME280;38258;51.148;14.068;2023-04-01T14:23:17;96736.97;;;10.07;100.00
52319;BME280;38258;51.148;14.068;2023-04-01T14:26:02;96767.41;;;10.08;100.00
52319;BME280;38258;51.148;14.068;2023-04-01T14:28:38;96789.69;;;10.31;100.00
52319;BME280;38258;51.148;14.068;2023-04-01T14:34:18;96837.31;;;10.21;100.00
52319;BME280;38258;51.148;14.068;2023-04-01T14:37:00;96802.50;;;10.02;100.00
52319;BME280;38258;51.148;14.068;2023-04-01T14:39:47;96783.72;;;9.78;100.00
52319;BME280;38258;51.148;14.068;2023-04-01T14:42:28;96808.81;;;9.98;100.00
52319;BME280;38258;51.148;14.068;2023-04-01T14:45:23;96827.56;;;10.74;100.00
52319;BME280;38258;51.148;14.068;2023-04-01T14:47:59;96818.22;;;10.36;100.00
52319;BME280;38258;51.148;14.068;2023-04-01T14:50:43;96834.31;;;10.94;100.00
52319;BME280;38258;51.148;14.068;2023-04-01T14:53:16;96794.59;;;10.71;100.00
52319;BME280;38258;51.148;14.068;2023-04-01T14:55:51;96810.28;;;10.87;100.00
52319;BME280;38258;51.148;14.068;2023-04-01T14:58:19;96867.34;;;10.97;100.00
52319;BME280;38258;51.148;14.068;2023-04-01T15:00:50;96757.50;;;9.46;100.00
52319;BME280;38258;51.148;14.068;2023-04-01T15:03:22;96864.38;;;9.84;100.00
52319;BME280;38258;51.148;14.068;2023-04-01T15:05:56;96760.31;;;8.69;100.00
52319;BME280;38258;51.148;14.068;2023-04-01T15:08:30;96768.84;;;8.54;100.00
52319;BME280;38258;51.148;14.068;2023-04-01T15:11:24;96865.75;;;9.19;100.00